sensor_id;sensor_type;location;lat;lon;timestamp;pressure;altitude;pressure_sealevel;temperature;humidity
78299;BME280;67556;55.656;12.590;2023-08-01T00:01:42;99744.66;;;16.80;79.98
78299;BME280;67556;55.656;12.590;2023-08-01T00:04:09;99744.63;;;16.85;80.41
78299;BME280;67556;55.656;12.590;2023-08-01T00:06:36;99735.66;;;16.84;80.49
78299;BME280;67556;55.656;12.590;2023-08-01T00:09:03;99738.34;;;16.84;80.33
78299;BME280;67556;55.656;12.590;2023-08-01T00:11:29;99734.72;;;16.91;79.93
78299;BME280;67556;55.656;12.590;2023-08-01T00:13:57;99723.97;;;16.88;79.56
78299;BME280;67556;55.656;12.590;2023-08-01T00:16:24;99719.50;;;16.84;79.81
78299;BME280;67556;55.656;12.590;2023-08-01T00:18:50;99716.84;;;16.86;79.81
78299;BME280;67556;55.656;12.590;2023-08-01T00:21:17;99714.06;;;16.93;79.49
78299;BME280;67556;55.656;12.590;2023-08-01T00:23:43;99703.31;;;16.95;79.47
78299;BME280;67556;55.656;12.590;2023-08-01T00:26:10;99698.75;;;17.03;79.36
78299;BME280;67556;55.656;12.590;2023-08-01T00:28:36;99697.91;;;16.98;79.80
78299;BME280;67556;55.656;12.590;2023-08-01T00:31:06;99687.09;;;17.03;79.62
78299;BME280;67556;55.656;12.590;2023-08-01T00:33:34;99698.69;;;17.09;79.66
78299;BME280;67556;55.656;12.590;2023-08-01T00:36:00;99692.44;;;17.07;79.72
78299;BME280;67556;55.656;12.590;2023-08-01T00:38:27;99690.63;;;17.06;79.89
78299;BME280;67556;55.656;12.590;2023-08-01T00:40:53;99692.44;;;17.07;80.14
78299;BME280;67556;55.656;12.590;2023-08-01T00:43:19;99690.56;;;17.17;79.92
78299;BME280;67556;55.656;12.590;2023-08-01T00:45:46;99687.81;;;17.21;79.90
78299;BME280;67556;55.656;12.590;2023-08-01T00:48:14;99686.91;;;17.23;80.02
78299;BME280;67556;55.656;12.590;2023-08-01T00:50:43;99686.91;;;17.23;80.21
78299;BME280;67556;55.656;12.590;2023-08-01T00:53:12;99686.88;;;17.26;79.40
78299;BME280;67556;55.656;12.590;2023-08-01T00:55:38;99686.00;;;17.22;80.09
78299;BME280;67556;55.656;12.590;2023-08-01T00:58:05;99682.53;;;17.12;79.31
78299;BME280;67556;55.656;12.590;2023-08-01T01:00:31;99677.16;;;17.11;79.64
78299;BME280;67556;55.656;12.590;2023-08-01T01:02:59;99670.03;;;17.05;79.47
78299;BME280;67556;55.656;12.590;2023-08-01T01:05:31;99663.81;;;17.00;79.77
78299;BME280;67556;55.656;12.590;2023-08-01T01:08:00;99660.19;;;17.01;80.54
78299;BME280;67556;55.656;12.590;2023-08-01T01:10:27;99656.66;;;16.99;81.04
78299;BME280;67556;55.656;12.590;2023-08-01T01:12:53;99649.50;;;16.98;81.50
78299;BME280;67556;55.656;12.590;2023-08-01T01:15:39;99635.16;;;16.96;81.41
78299;BME280;67556;55.656;12.590;2023-08-01T01:18:07;99633.38;;;16.95;81.51
78299;BME280;67556;55.656;12.590;2023-08-01T01:20:36;99615.50;;;16.85;81.92
78299;BME280;67556;55.656;12.590;2023-08-01T01:23:04;99617.34;;;16.83;82.04
78299;BME280;67556;55.656;12.590;2023-08-01T01:25:39;99609.28;;;16.80;82.48
78299;BME280;67556;55.656;12.590;2023-08-01T01:28:07;99602.16;;;16.77;82.58
78299;BME280;67556;55.656;12.590;2023-08-01T01:30:35;99595.88;;;16.78;82.47
78299;BME280;67556;55.656;12.590;2023-08-01T01:33:08;99590.53;;;16.74;81.90
78299;BME280;67556;55.656;12.590;2023-08-01T01:35:38;99585.16;;;16.67;81.96
78299;BME280;67556;55.656;12.590;2023-08-01T01:38:04;99573.50;;;16.68;82.31
78299;BME280;67556;55.656;12.590;2023-08-01T01:40:30;99575.34;;;16.65;82.17
78299;BME280;67556;55.656;12.590;2023-08-01T01:43:04;99565.47;;;16.64;81.83
78299;BME280;67556;55.656;12.590;2023-08-01T01:45:31;99561.91;;;16.63;81.69
78299;BME280;67556;55.656;12.590;2023-08-01T01:47:57;99558.34;;;16.61;82.15
78299;BME280;67556;55.656;12.590;2023-08-01T01:50:23;99560.19;;;16.55;82.00
78299;BME280;67556;55.656;12.590;2023-08-01T01:52:51;99549.50;;;16.50;82.72
78299;BME280;67556;55.656;12.590;2023-08-01T01:55:18;99537.91;;;16.45;83.01
78299;BME280;67556;55.656;12.590;2023-08-01T01:57:50;99546.84;;;16.45;83.78
78299;BME280;67556;55.656;12.590;2023-08-01T02:00:16;99532.50;;;16.46;83.88
78299;BME280;67556;55.656;12.590;2023-08-01T02:02:43;99531.59;;;16.49;83.67
78299;BME280;67556;55.656;12.590;2023-08-01T02:05:09;99536.94;;;16.52;84.24
78299;BME280;67556;55.656;12.590;2023-08-01T02:07:36;99542.28;;;16.55;84.51
78299;BME280;67556;55.656;12.590;2023-08-01T02:10:11;99540.47;;;16.56;84.41
78299;BME280;67556;55.656;12.590;2023-08-01T02:12:37;99549.44;;;16.58;85.29
78299;BME280;67556;55.656;12.590;2023-08-01T02:15:04;99540.50;;;16.54;85.74
78299;BME280;67556;55.656;12.590;2023-08-01T02:17:43;99536.91;;;16.54;86.16
78299;BME280;67556;55.656;12.590;2023-08-01T02:20:10;99528.00;;;16.49;86.45
78299;BME280;67556;55.656;12.590;2023-08-01T02:22:37;99528.06;;;16.41;86.65
78299;BME280;67556;55.656;12.590;2023-08-01T02:25:05;99526.44;;;16.25;87.78
78299;BME280;67556;55.656;12.590;2023-08-01T02:27:33;99521.13;;;16.18;88.72
78299;BME280;67556;55.656;12.590;2023-08-01T02:30:06;99524.75;;;16.11;88.93
78299;BME280;67556;55.656;12.590;2023-08-01T02:32:35;99520.34;;;16.03;89.58
78299;BME280;67556;55.656;12.590;2023-08-01T02:35:01;99519.53;;;15.93;89.78
78299;BME280;67556;55.656;12.590;2023-08-01T02:37:33;99510.53;;;15.92;90.23
78299;BME280;67556;55.656;12.590;2023-08-01T02:40:17;99502.47;;;15.95;90.39
78299;BME280;67556;55.656;12.590;2023-08-01T02:43:01;99499.78;;;15.99;90.02
78299;BME280;67556;55.656;12.590;2023-08-01T02:45:30;99490.84;;;15.95;90.54
78299;BME280;67556;55.656;12.590;2023-08-01T02:47:56;99488.16;;;15.98;91.03
78299;BME280;67556;55.656;12.590;2023-08-01T02:50:23;99483.59;;;16.06;90.22
78299;BME280;67556;55.656;12.590;2023-08-01T02:52:51;99485.34;;;16.09;90.47
78299;BME280;67556;55.656;12.590;2023-08-01T02:55:17;99485.34;;;16.12;90.46
78299;BME280;67556;55.656;12.590;2023-08-01T02:57:50;99476.31;;;16.17;90.25
78299;BME280;67556;55.656;12.590;2023-08-01T03:02:53;99461.16;;;16.15;90.50
78299;BME280;67556;55.656;12.590;2023-08-01T03:05:19;99458.44;;;16.16;90.13
78299;BME280;67556;55.656;12.590;2023-08-01T03:07:52;99460.22;;;16.19;90.06
78299;BME280;67556;55.656;12.590;2023-08-01T03:10:25;99461.97;;;16.21;90.19
78299;BME280;67556;55.656;12.590;2023-08-01T03:13:04;99453.03;;;16.23;90.02
78299;BME280;67556;55.656;12.590;2023-08-01T03:15:48;99456.63;;;16.20;90.12
78299;BME280;67556;55.656;12.590;2023-08-01T03:18:17;99458.41;;;16.19;90.04
78299;BME280;67556;55.656;12.590;2023-08-01T03:21:03;99454.81;;;16.20;90.19
78299;BME280;67556;55.656;12.590;2023-08-01T03:23:29;99452.09;;;16.25;90.33
78299;BME280;67556;55.656;12.590;2023-08-01T03:26:08;99450.25;;;16.29;90.57
78299;BME280;67556;55.656;12.590;2023-08-01T03:28:34;99454.69;;;16.33;90.04
78299;BME280;67556;55.656;12.590;2023-08-01T03:31:01;99450.22;;;16.30;90.20
78299;BME280;67556;55.656;12.590;2023-08-01T03:33:34;99448.47;;;16.29;90.79
78299;BME280;67556;55.656;12.590;2023-08-01T03:36:14;99454.72;;;16.30;90.68
78299;BME280;67556;55.656;12.590;2023-08-01T03:38:53;99440.41;;;16.31;90.77
78299;BME280;67556;55.656;12.590;2023-08-01T03:41:32;99442.13;;;16.35;90.58
78299;BME280;67556;55.656;12.590;2023-08-01T03:44:05;99442.13;;;16.35;91.17
78299;BME280;67556;55.656;12.590;2023-08-01T03:46:38;99437.63;;;16.40;90.94
78299;BME280;67556;55.656;12.590;2023-08-01T03:49:07;99443.84;;;16.42;90.78
78299;BME280;67556;55.656;12.590;2023-08-01T03:51:34;99443.00;;;16.40;90.81
78299;BME280;67556;55.656;12.590;2023-08-01T03:54:01;99434.94;;;16.37;90.85
78299;BME280;67556;55.656;12.590;2023-08-01T03:56:27;99429.66;;;16.31;90.51
78299;BME280;67556;55.656;12.590;2023-08-01T03:58:55;99419.84;;;16.25;90.69
78299;BME280;67556;55.656;12.590;2023-08-01T04:01:36;99417.16;;;16.27;90.56
78299;BME280;67556;55.656;12.590;2023-08-01T04:04:03;99420.78;;;16.23;90.73
78299;BME280;67556;55.656;12.590;2023-08-01T04:06:32;99411.84;;;16.20;90.80
78299;BME280;67556;55.656;12.590;2023-08-01T04:08:58;99418.09;;;16.23;91.05
78299;BME280;67556;55.656;12.590;2023-08-01T04:11:27;99414.50;;;16.24;91.79
78299;BME280;67556;55.656;12.590;2023-08-01T04:13:55;99410.88;;;16.28;91.60
78299;BME280;67556;55.656;12.590;2023-08-01T04:16:25;99404.59;;;16.29;91.44
78299;BME280;67556;55.656;12.590;2023-08-01T04:18:57;99400.09;;;16.29;91.04
78299;BME280;67556;55.656;12.590;2023-08-01T04:21:24;99394.72;;;16.29;90.83
78299;BME280;67556;55.656;12.590;2023-08-01T04:23:53;99393.84;;;16.26;91.22
78299;BME280;67556;55.656;12.590;2023-08-01T04:26:19;99385.81;;;16.24;91.80
78299;BME280;67556;55.656;12.590;2023-08-01T04:29:01;99379.53;;;16.25;92.01
78299;BME280;67556;55.656;12.590;2023-08-01T04:31:27;99388.53;;;16.21;92.03
78299;BME280;67556;55.656;12.590;2023-08-01T04:33:54;99390.22;;;16.30;91.87
78299;BME280;67556;55.656;12.590;2023-08-01T04:36:26;99381.31;;;16.28;92.26
78299;BME280;67556;55.656;12.590;2023-08-01T04:38:54;99365.16;;;16.31;92.01
78299;BME280;67556;55.656;12.590;2023-08-01T04:41:33;99362.44;;;16.35;91.78
78299;BME280;67556;55.656;12.590;2023-08-01T04:43:59;99357.97;;;16.33;92.28
78299;BME280;67556;55.656;12.590;2023-08-01T04:46:37;99369.56;;;16.35;92.41
78299;BME280;67556;55.656;12.590;2023-08-01T04:49:04;99367.81;;;16.35;92.60
78299;BME280;67556;55.656;12.590;2023-08-01T04:51:31;99368.63;;;16.39;92.43
78299;BME280;67556;55.656;12.590;2023-08-01T04:54:01;99377.59;;;16.38;92.67
78299;BME280;67556;55.656;12.590;2023-08-01T04:56:30;99362.38;;;16.38;92.75
78299;BME280;67556;55.656;12.590;2023-08-01T04:59:06;99364.13;;;16.44;92.45
78299;BME280;67556;55.656;12.590;2023-08-01T05:01:34;99349.72;;;16.46;92.45
78299;BME280;67556;55.656;12.590;2023-08-01T05:04:00;99355.88;;;16.58;92.29
78299;BME280;67556;55.656;12.590;2023-08-01T05:06:33;99352.19;;;16.66;91.65
78299;BME280;67556;55.656;12.590;2023-08-01T05:09:05;99348.56;;;16.67;91.42
78299;BME280;67556;55.656;12.590;2023-08-01T05:11:34;99344.97;;;16.68;92.03
78299;BME280;67556;55.656;12.590;2023-08-01T05:14:01;99340.44;;;16.72;92.00
78299;BME280;67556;55.656;12.590;2023-08-01T05:16:29;99344.03;;;16.77;92.11
78299;BME280;67556;55.656;12.590;2023-08-01T05:18:57;99343.97;;;16.80;92.11
78299;BME280;67556;55.656;12.590;2023-08-01T05:21:23;99344.75;;;16.90;92.07
78299;BME280;67556;55.656;12.590;2023-08-01T05:24:02;99343.75;;;16.95;91.60
78299;BME280;67556;55.656;12.590;2023-08-01T05:26:36;99344.59;;;16.99;91.53
78299;BME280;67556;55.656;12.590;2023-08-01T05:29:03;99343.66;;;17.03;91.35
78299;BME280;67556;55.656;12.590;2023-08-01T05:31:30;99340.03;;;17.04;90.72
78299;BME280;67556;55.656;12.590;2023-08-01T05:34:05;99343.63;;;17.05;89.93
78299;BME280;67556;55.656;12.590;2023-08-01T05:36:32;99347.22;;;17.02;89.65
78299;BME280;67556;55.656;12.590;2023-08-01T05:39:05;99341.03;;;16.97;90.15
78299;BME280;67556;55.656;12.590;2023-08-01T05:41:31;99351.78;;;16.97;89.77
78299;BME280;67556;55.656;12.590;2023-08-01T05:44:05;99342.84;;;16.98;90.08
78299;BME280;67556;55.656;12.590;2023-08-01T05:46:33;99337.38;;;17.01;90.51
78299;BME280;67556;55.656;12.590;2023-08-01T05:49:06;99334.63;;;17.07;89.90
78299;BME280;67556;55.656;12.590;2023-08-01T05:51:32;99342.63;;;17.10;89.98
78299;BME280;67556;55.656;12.590;2023-08-01T05:53:59;99340.81;;;17.12;90.46
78299;BME280;67556;55.656;12.590;2023-08-01T05:56:25;99329.16;;;17.12;89.79
78299;BME280;67556;55.656;12.590;2023-08-01T05:58:52;99338.16;;;17.09;90.13
78299;BME280;67556;55.656;12.590;2023-08-01T06:01:19;99340.88;;;17.06;90.36
78299;BME280;67556;55.656;12.590;2023-08-01T06:03:46;99340.88;;;17.06;90.11
78299;BME280;67556;55.656;12.590;2023-08-01T06:06:12;99340.88;;;17.06;90.33
78299;BME280;67556;55.656;12.590;2023-08-01T06:08:39;99335.44;;;17.12;90.49
78299;BME280;67556;55.656;12.590;2023-08-01T06:11:05;99341.75;;;17.10;90.38
78299;BME280;67556;55.656;12.590;2023-08-01T06:13:40;99336.44;;;17.07;90.50
78299;BME280;67556;55.656;12.590;2023-08-01T06:16:06;99336.44;;;17.05;90.42
78299;BME280;67556;55.656;12.590;2023-08-01T06:18:34;99344.53;;;17.02;90.32
78299;BME280;67556;55.656;12.590;2023-08-01T06:21:02;99341.94;;;16.96;90.75
78299;BME280;67556;55.656;12.590;2023-08-01T06:23:29;99339.25;;;16.96;91.33
78299;BME280;67556;55.656;12.590;2023-08-01T06:25:57;99335.63;;;17.00;91.63
78299;BME280;67556;55.656;12.590;2023-08-01T06:28:25;99331.09;;;17.04;91.44
78299;BME280;67556;55.656;12.590;2023-08-01T06:30:58;99335.59;;;17.03;90.73
78299;BME280;67556;55.656;12.590;2023-08-01T06:33:24;99338.34;;;16.97;91.67
78299;BME280;67556;55.656;12.590;2023-08-01T06:35:52;99341.84;;;17.02;90.66
78299;BME280;67556;55.656;12.590;2023-08-01T06:38:18;99340.03;;;17.04;90.90
78299;BME280;67556;55.656;12.590;2023-08-01T06:40:46;99343.66;;;17.03;90.99
78299;BME280;67556;55.656;12.590;2023-08-01T06:43:13;99334.69;;;17.03;91.11
78299;BME280;67556;55.656;12.590;2023-08-01T06:45:40;99336.47;;;17.04;91.12
78299;BME280;67556;55.656;12.590;2023-08-01T06:48:06;99330.97;;;17.11;91.04
78299;BME280;67556;55.656;12.590;2023-08-01T06:50:33;99322.84;;;17.14;90.86
78299;BME280;67556;55.656;12.590;2023-08-01T06:53:20;99320.06;;;17.20;90.96
78299;BME280;67556;55.656;12.590;2023-08-01T06:55:52;99320.06;;;17.20;90.75
78299;BME280;67556;55.656;12.590;2023-08-01T06:58:20;99324.50;;;17.25;90.72
78299;BME280;67556;55.656;12.590;2023-08-01T07:00:46;99319.09;;;17.23;91.10
78299;BME280;67556;55.656;12.590;2023-08-01T07:03:12;99320.88;;;17.26;91.06
78299;BME280;67556;55.656;12.590;2023-08-01T07:05:42;99327.19;;;17.25;91.35
78299;BME280;67556;55.656;12.590;2023-08-01T07:08:09;99322.66;;;17.27;91.68
78299;BME280;67556;55.656;12.590;2023-08-01T07:10:38;99315.50;;;17.26;91.17
78299;BME280;67556;55.656;12.590;2023-08-01T07:13:06;99316.31;;;17.31;91.63
78299;BME280;67556;55.656;12.590;2023-08-01T07:15:36;99322.56;;;17.33;90.41
78299;BME280;67556;55.656;12.590;2023-08-01T07:18:03;99328.88;;;17.30;89.93
78299;BME280;67556;55.656;12.590;2023-08-01T07:20:31;99325.34;;;17.27;90.03
78299;BME280;67556;55.656;12.590;2023-08-01T07:23:00;99324.50;;;17.25;90.06
78299;BME280;67556;55.656;12.590;2023-08-01T07:25:34;99319.00;;;17.31;90.53
78299;BME280;67556;55.656;12.590;2023-08-01T07:28:02;99319.84;;;17.34;90.72
78299;BME280;67556;55.656;12.590;2023-08-01T07:30:36;99318.03;;;17.36;90.33
78299;BME280;67556;55.656;12.590;2023-08-01T07:33:03;99323.41;;;17.35;90.73
78299;BME280;67556;55.656;12.590;2023-08-01T07:35:30;99321.69;;;17.31;90.92
78299;BME280;67556;55.656;12.590;2023-08-01T07:37:57;99322.56;;;17.33;90.06
78299;BME280;67556;55.656;12.590;2023-08-01T07:40:23;99323.44;;;17.33;89.84
78299;BME280;67556;55.656;12.590;2023-08-01T07:42:50;99316.19;;;17.38;89.90
78299;BME280;67556;55.656;12.590;2023-08-01T07:45:19;99315.25;;;17.41;89.68
78299;BME280;67556;55.656;12.590;2023-08-01T07:47:45;99309.81;;;17.44;89.09
78299;BME280;67556;55.656;12.590;2023-08-01T07:50:13;99309.84;;;17.42;89.23
78299;BME280;67556;55.656;12.590;2023-08-01T07:52:45;99308.91;;;17.43;89.79
78299;BME280;67556;55.656;12.590;2023-08-01T07:55:11;99318.75;;;17.46;89.80
78299;BME280;67556;55.656;12.590;2023-08-01T07:57:39;99315.19;;;17.45;88.39
78299;BME280;67556;55.656;12.590;2023-08-01T08:00:08;99307.09;;;17.45;88.84
78299;BME280;67556;55.656;12.590;2023-08-01T08:02:36;99301.59;;;17.53;89.33
78299;BME280;67556;55.656;12.590;2023-08-01T08:05:06;99305.13;;;17.55;89.13
78299;BME280;67556;55.656;12.590;2023-08-01T08:07:34;99304.97;;;17.64;88.54
78299;BME280;67556;55.656;12.590;2023-08-01T08:10:01;99295.13;;;17.63;88.44
78299;BME280;67556;55.656;12.590;2023-08-01T08:12:34;99302.13;;;17.75;87.83
78299;BME280;67556;55.656;12.590;2023-08-01T08:15:00;99286.63;;;17.88;87.41
78299;BME280;67556;55.656;12.590;2023-08-01T08:17:30;99292.75;;;17.96;86.72
78299;BME280;67556;55.656;12.590;2023-08-01T08:19:58;99301.47;;;18.10;86.22
78299;BME280;67556;55.656;12.590;2023-08-01T08:22:31;99303.16;;;18.14;84.56
78299;BME280;67556;55.656;12.590;2023-08-01T08:24:58;99304.69;;;18.28;85.28
78299;BME280;67556;55.656;12.590;2023-08-01T08:27:30;99299.16;;;18.35;83.96
78299;BME280;67556;55.656;12.590;2023-08-01T08:29:58;99304.41;;;18.43;83.44
78299;BME280;67556;55.656;12.590;2023-08-01T08:32:24;99309.72;;;18.46;82.15
78299;BME280;67556;55.656;12.590;2023-08-01T08:34:53;99300.56;;;18.53;82.92
78299;BME280;67556;55.656;12.590;2023-08-01T08:37:20;99308.59;;;18.56;82.27
78299;BME280;67556;55.656;12.590;2023-08-01T08:39:47;99299.69;;;18.54;81.50
78299;BME280;67556;55.656;12.590;2023-08-01T08:42:17;99303.16;;;18.59;81.88
78299;BME280;67556;55.656;12.590;2023-08-01T08:44:55;99288.97;;;18.50;81.03
78299;BME280;67556;55.656;12.590;2023-08-01T08:47:22;99304.34;;;18.46;81.52
78299;BME280;67556;55.656;12.590;2023-08-01T08:49:55;99305.47;;;18.34;80.91
78299;BME280;67556;55.656;12.590;2023-08-01T08:52:29;99297.34;;;18.36;81.74
78299;BME280;67556;55.656;12.590;2023-08-01T08:54:57;99291.84;;;18.42;82.26
78299;BME280;67556;55.656;12.590;2023-08-01T08:57:24;99298.19;;;18.39;81.95
78299;BME280;67556;55.656;12.590;2023-08-01T08:59:52;99288.03;;;18.52;81.51
78299;BME280;67556;55.656;12.590;2023-08-01T09:02:20;99297.72;;;18.61;81.30
78299;BME280;67556;55.656;12.590;2023-08-01T09:04:47;99298.69;;;18.57;81.28
78299;BME280;67556;55.656;12.590;2023-08-01T09:07:15;99286.03;;;18.60;81.96
78299;BME280;67556;55.656;12.590;2023-08-01T09:09:43;99293.03;;;18.70;80.75
78299;BME280;67556;55.656;12.590;2023-08-01T09:12:09;99284.88;;;18.75;79.75
78299;BME280;67556;55.656;12.590;2023-08-01T09:14:36;99287.41;;;18.81;79.51
78299;BME280;67556;55.656;12.590;2023-08-01T09:17:06;99286.53;;;18.79;78.64
78299;BME280;67556;55.656;12.590;2023-08-01T09:19:36;99298.25;;;18.80;77.03
78299;BME280;67556;55.656;12.590;2023-08-01T09:22:10;99291.06;;;18.79;73.60
78299;BME280;67556;55.656;12.590;2023-08-01T09:24:51;99288.81;;;18.57;70.94
78299;BME280;67556;55.656;12.590;2023-08-01T09:27:21;99293.84;;;18.74;71.48
78299;BME280;67556;55.656;12.590;2023-08-01T09:29:50;99299.25;;;18.74;71.98
78299;BME280;67556;55.656;12.590;2023-08-01T09:32:19;99288.34;;;18.80;71.60
78299;BME280;67556;55.656;12.590;2023-08-01T09:34:45;99288.69;;;19.04;70.55
78299;BME280;67556;55.656;12.590;2023-08-01T09:37:13;99285.81;;;19.11;69.58
78299;BME280;67556;55.656;12.590;2023-08-01T09:39:40;99282.88;;;19.20;69.63
78299;BME280;67556;55.656;12.590;2023-08-01T09:42:08;99288.03;;;19.30;69.61
78299;BME280;67556;55.656;12.590;2023-08-01T09:44:45;99281.06;;;19.21;68.30
78299;BME280;67556;55.656;12.590;2023-08-01T09:47:13;99283.34;;;19.38;69.74
78299;BME280;67556;55.656;12.590;2023-08-01T09:49:48;99274.72;;;19.59;67.22
78299;BME280;67556;55.656;12.590;2023-08-01T09:52:26;99280.13;;;19.59;67.74
78299;BME280;67556;55.656;12.590;2023-08-01T09:54:53;99277.63;;;19.52;66.43
78299;BME280;67556;55.656;12.590;2023-08-01T09:57:22;99281.00;;;19.60;67.20
78299;BME280;67556;55.656;12.590;2023-08-01T09:59:49;99275.47;;;19.66;66.07
78299;BME280;67556;55.656;12.590;2023-08-01T10:02:18;99268.94;;;19.75;66.40
78299;BME280;67556;55.656;12.590;2023-08-01T10:04:47;99271.56;;;19.78;65.11
78299;BME280;67556;55.656;12.590;2023-08-01T10:07:17;99273.75;;;19.96;66.17
78299;BME280;67556;55.656;12.590;2023-08-01T10:09:49;99268.53;;;19.90;66.67
78299;BME280;67556;55.656;12.590;2023-08-01T10:12:17;99266.31;;;20.04;65.39
78299;BME280;67556;55.656;12.590;2023-08-01T10:14:46;99266.56;;;19.95;64.73
78299;BME280;67556;55.656;12.590;2023-08-01T10:17:12;99271.03;;;19.96;64.30
78299;BME280;67556;55.656;12.590;2023-08-01T10:19:44;99264.56;;;20.03;64.37
78299;BME280;67556;55.656;12.590;2023-08-01T10:22:13;99271.66;;;20.07;63.19
78299;BME280;67556;55.656;12.590;2023-08-01T10:25:00;99276.16;;;20.07;65.15
78299;BME280;67556;55.656;12.590;2023-08-01T10:27:32;99279.53;;;20.15;64.14
78299;BME280;67556;55.656;12.590;2023-08-01T10:30:04;99272.94;;;19.92;64.74
78299;BME280;67556;55.656;12.590;2023-08-01T10:32:33;99282.97;;;19.89;64.92
78299;BME280;67556;55.656;12.590;2023-08-01T10:35:01;99277.66;;;19.86;63.89
78299;BME280;67556;55.656;12.590;2023-08-01T10:37:39;99286.50;;;19.91;64.16
78299;BME280;67556;55.656;12.590;2023-08-01T10:40:07;99279.88;;;20.03;63.68
78299;BME280;67556;55.656;12.590;2023-08-01T10:42:39;99281.53;;;20.08;64.29
78299;BME280;67556;55.656;12.590;2023-08-01T10:45:19;99281.59;;;20.05;64.63
78299;BME280;67556;55.656;12.590;2023-08-01T10:47:52;99280.16;;;19.92;65.36
78299;BME280;67556;55.656;12.590;2023-08-01T10:50:19;99284.56;;;19.96;65.47
78299;BME280;67556;55.656;12.590;2023-08-01T10:52:47;99288.28;;;19.92;65.15
78299;BME280;67556;55.656;12.590;2023-08-01T10:55:14;99283.13;;;19.83;66.24
78299;BME280;67556;55.656;12.590;2023-08-01T10:57:47;99295.34;;;19.63;65.32
78299;BME280;67556;55.656;12.590;2023-08-01T11:00:17;99288.31;;;19.55;65.42
78299;BME280;67556;55.656;12.590;2023-08-01T11:02:49;99287.97;;;19.33;66.31
78299;BME280;67556;55.656;12.590;2023-08-01T11:05:23;99295.25;;;19.31;66.78
78299;BME280;67556;55.656;12.590;2023-08-01T11:07:55;99292.50;;;19.32;67.65
78299;BME280;67556;55.656;12.590;2023-08-01T11:10:24;99288.97;;;19.29;69.04
78299;BME280;67556;55.656;12.590;2023-08-01T11:12:51;99285.22;;;19.36;69.42
78299;BME280;67556;55.656;12.590;2023-08-01T11:15:25;99300.78;;;19.25;69.08
78299;BME280;67556;55.656;12.590;2023-08-01T11:17:53;99279.94;;;19.31;68.61
78299;BME280;67556;55.656;12.590;2023-08-01T11:20:31;99286.22;;;19.32;67.38
78299;BME280;67556;55.656;12.590;2023-08-01T11:22:59;99284.56;;;19.26;69.04
78299;BME280;67556;55.656;12.590;2023-08-01T11:25:33;99276.47;;;19.26;69.51
78299;BME280;67556;55.656;12.590;2023-08-01T11:28:07;99282.75;;;19.25;70.09
78299;BME280;67556;55.656;12.590;2023-08-01T11:30:37;99276.94;;;19.06;72.08
78299;BME280;67556;55.656;12.590;2023-08-01T11:33:13;99272.25;;;19.14;72.98
78299;BME280;67556;55.656;12.590;2023-08-01T11:35:40;99266.91;;;19.11;71.89
78299;BME280;67556;55.656;12.590;2023-08-01T11:38:07;99276.06;;;19.04;71.87
78299;BME280;67556;55.656;12.590;2023-08-01T11:40:34;99279.88;;;18.95;71.67
78299;BME280;67556;55.656;12.590;2023-08-01T11:43:06;99276.28;;;18.95;73.58
78299;BME280;67556;55.656;12.590;2023-08-01T11:45:32;99276.28;;;18.97;76.29
78299;BME280;67556;55.656;12.590;2023-08-01T11:48:01;99283.72;;;18.85;77.73
78299;BME280;67556;55.656;12.590;2023-08-01T11:50:34;99274.84;;;18.80;78.61
78299;BME280;67556;55.656;12.590;2023-08-01T11:53:00;99286.81;;;18.67;78.86
78299;BME280;67556;55.656;12.590;2023-08-01T11:55:27;99286.41;;;18.43;79.36
78299;BME280;67556;55.656;12.590;2023-08-01T11:57:55;99282.00;;;18.39;80.16
78299;BME280;67556;55.656;12.590;2023-08-01T12:00:23;99294.91;;;18.24;79.82
78299;BME280;67556;55.656;12.590;2023-08-01T12:03:04;99298.75;;;18.12;80.74
78299;BME280;67556;55.656;12.590;2023-08-01T12:05:31;99300.63;;;18.07;81.63
78299;BME280;67556;55.656;12.590;2023-08-01T12:08:08;99298.81;;;18.09;81.42
78299;BME280;67556;55.656;12.590;2023-08-01T12:10:37;99294.28;;;18.09;81.49
78299;BME280;67556;55.656;12.590;2023-08-01T12:13:03;99305.03;;;18.11;80.95
78299;BME280;67556;55.656;12.590;2023-08-01T12:15:30;99309.59;;;18.09;81.09
78299;BME280;67556;55.656;12.590;2023-08-01T12:17:59;99316.03;;;17.99;81.61
78299;BME280;67556;55.656;12.590;2023-08-01T12:20:27;99318.75;;;17.99;82.00
78299;BME280;67556;55.656;12.590;2023-08-01T12:22:58;99322.25;;;18.04;82.26
78299;BME280;67556;55.656;12.590;2023-08-01T12:25:25;99311.44;;;18.05;81.31
78299;BME280;67556;55.656;12.590;2023-08-01T12:27:54;99312.22;;;18.10;81.25
78299;BME280;67556;55.656;12.590;2023-08-01T12:30:22;99317.84;;;17.98;80.99
78299;BME280;67556;55.656;12.590;2023-08-01T12:32:48;99318.22;;;17.80;80.15
78299;BME280;67556;55.656;12.590;2023-08-01T12:35:16;99327.25;;;17.73;81.31
78299;BME280;67556;55.656;12.590;2023-08-01T12:37:44;99324.63;;;17.69;82.00
78299;BME280;67556;55.656;12.590;2023-08-01T12:40:12;99322.00;;;17.66;82.28
78299;BME280;67556;55.656;12.590;2023-08-01T12:42:39;99307.56;;;17.70;81.56
78299;BME280;67556;55.656;12.590;2023-08-01T12:45:06;99325.28;;;17.87;81.15
78299;BME280;67556;55.656;12.590;2023-08-01T12:47:33;99317.25;;;17.82;80.82
78299;BME280;67556;55.656;12.590;2023-08-01T12:50:00;99323.28;;;17.97;80.01
78299;BME280;67556;55.656;12.590;2023-08-01T12:52:26;99318.50;;;18.12;80.45
78299;BME280;67556;55.656;12.590;2023-08-01T12:54:54;99319.56;;;18.04;81.00
78299;BME280;67556;55.656;12.590;2023-08-01T12:57:21;99314.09;;;18.08;81.42
78299;BME280;67556;55.656;12.590;2023-08-01T12:59:48;99323.66;;;18.25;81.69
78299;BME280;67556;55.656;12.590;2023-08-01T13:02:15;99316.13;;;18.40;81.78
78299;BME280;67556;55.656;12.590;2023-08-01T13:04:41;99316.94;;;18.44;79.54